NWS Home NWS Lubbock West Texas Mesonet Latest Conditions as of 0120 PM, Sun Sep 20, 2020

Latest   N   C   S   Daily Sum   3hrΔ   24hrΔ   Soil Data 
Site Map   24hr Precip   72hr Precip   Google Plot


Station Time of Last Temp Dew Pt. RH Wind Direction Wind Speed Wind Gust Max Wind Max Temp Min Temp Max RH Min RH Altimeter 1HR Rain Today's Rain Solar Rad RFTI
Abernathy 5ENE  01:15 PM 75 54 47% SE911 15 mph 187° @ 0113 PM 76 48 95 46 30.23" 0 0 842 0
Adrian 6WSW  01:15 PM 77 51 40% S1621 27 mph 216° @ 1118 AM 78 54 89 38 30.21" 0 0 836 0
Aiken 3WSW  01:15 PM 75 51 42% S78 16 mph 208° @ 1219 PM 76 48 94 42 30.23" 0 0 859 0
Amarillo 15NNW   01:15 PM 80 52 37% S1216 25 mph 192° @ 1038 AM 80 54 86 36 30.18" 0 0 808 0
Amarillo 7SSE  01:15 PM 79 50 36% SW1317 26 mph 206° @ 1026 AM 80 49 100 35 30.21" 0 0 815 0
Amarillo 9NNE  01:15 PM 79 51 39% S1517 25 mph 181° @ 1011 AM 79 54 87 38 30.18" 0 0 847 0
Amherst 1NE  01:15 PM 77 50 39% S1015 17 mph 185° @ 0110 PM 78 48 94 39 30.22" 0 0 826 0
Andrews 2E  01:15 PM 77 49 39% SE58 15 mph 159° @ 0950 AM 77 52 95 39 30.21" 0 0 864 0
Anton 6SSW  01:15 PM 76 51 43% S712 19 mph 202° @ 1120 AM 76 45 92 43 30.22" 0 0 842 0
Aspermont 3NE  01:15 PM 75 57 54% E59 12 mph 151° @ 1050 AM 75 50 100 54 30.19" 0 0 846 0
Big Bend NP - Castolon  01:15 PM 84 57 40% W34 14 mph 280° @ 0145 AM 84 65 78 40 30.12" 0 0 909 0
Big Bend NP - Persimmon Gap  01:15 PM 77 54 45% N912 20 mph 27° @ 0902 AM 77 64 73 44 30.18" 0 0 879 0
Big Lake 1WNW  01:15 PM 76 49 39% NE45 12 mph 94° @ 1251 AM 76 57 87 39 30.20" 0 0 862 0
Bootleg 11WNW  01:15 PM 77 50 39% S1417 26 mph 201° @ 1054 AM 77 54 92 39 30.25" 0 0 767 0
Borger 7E  01:15 PM 80 50 35% S1822 27 mph 193° @ 1223 PM 80 55 83 35 30.17" 0 0 849 0
Boys Ranch 1WSW  01:15 PM 82 53 37% S911 23 mph 183° @ 0149 AM 82 56 86 36 30.12" 0 0 807 0
Brownfield 2S  01:15 PM 75 51 44% S610 18 mph 173° @ 1025 AM 75 52 92 43 30.22" 0 0 839 0
Canadian 6E  01:15 PM 80 56 44% SE1519 22 mph 173° @ 1223 PM 81 54 97 44 30.15" 0 0 804 0
Caprock Canyons State Park  01:15 PM 79 51 37% S711 16 mph 222° @ 0950 AM 79 55 86 37 30.20" 0 0 873 0
Childress 2NNE  12:20 PM 74 56 55% SE69 16 mph 170° @ 1050 AM 74 55 95 55 30.21" 0 0 723 0
Clarendon 2WSW  01:15 PM 75 55 51% S1015 18 mph 206° @ 1120 AM 75 50 93 51 30.21" 0 0 830 0
Claude 12SW  01:15 PM 78 51 39% SE1517 21 mph 155° @ 1259 PM 79 55 86 39 30.20" 0 0 852 0
Clyde 2WNW  01:15 PM 76 48 38% E1214 16 mph 67° @ 0107 PM 76 55 90 38 30.19" 0 0 860 0
Colorado City 5NW  01:15 PM 76 54 47% E57 9 mph 50° @ 0104 PM 76 53 95 44 30.20" 0 0 816 0
Comanche Springs  01:15 PM 75 56 51% S48 14 mph 156° @ 1208 PM 76 46 100 50 30.19" 0 0 847 0
Coyanosa 2N  01:15 PM 79 55 45% E810 18 mph 107° @ 1056 AM 79 56 93 45 30.18" 0 0 881 0
Crane 1NNW   01:15 PM 77 53 43% E58 14 mph 118° @ 1207 AM 78 56 87 43 30.18" 0 0 854 0
Crowell 1E  01:15 PM 76 55 49% S46 13 mph 179° @ 1121 AM 76 55 96 48 30.19" 0 0 853 0
Dell City  01:15 PM 78 52 41% E02 13 mph 132° @ 0241 AM 78 52 89 41 30.20" 0 0 849 0
Denver City 7WNW  01:15 PM 75 52 46% SE612 15 mph 168° @ 1140 AM 76 51 98 44 30.22" 0 0 880 0
Dimmitt 2NE  01:15 PM 76 50 41% S1116 20 mph 198° @ 1030 AM 76 51 92 41 30.22" 0 0 829 0
Doole 3WNW  01:15 PM 78 50 38% NE48 15 mph 65° @ 0102 PM 79 48 97 38 30.15" 0 0 896 0
Dora NM 2SW  01:15 PM 78 47 35% S1418 22 mph 188° @ 1010 AM 78 51 93 35 30.23" 0 0 810 0
Dozier 3W  01:15 PM 78 57 50% S79 18 mph 152° @ 1254 PM 79 51 100 49 30.20" 0 0 801 0
Earth 9WSW  01:15 PM 78 50 38% S710 23 mph 182° @ 1004 AM 80 50 93 36 30.23" 0 0 855 0
Endee NM 2SW  01:15 PM 79 52 39% S1518 27 mph 210° @ 1014 AM 79 59 78 39 30.19" 0 0 780 0
Estelline 3SSE  01:15 PM 77 57 50% S610 14 mph 149° @ 1256 PM 77 52 97 48 30.18" 0 0 820 0
Floydada 2NNE  01:15 PM 77 49 38% S610 16 mph 195° @ 1140 AM 78 50 93 36 30.22" 0 0 815 0
Fluvanna 3WNW  01:15 PM 74 52 48% SE38 12 mph 186° @ 0950 AM 74 55 91 48 30.21" 0 0 786 0
Fort Chadbourne  01:15 PM 77 53 44% NE811 12 mph 103° @ 1207 PM 77 54 100 44 30.18" 0 0 661 0
Fort Lancaster  01:15 PM 78 54 43% N34 21 mph 75° @ 1219 AM 78 59 89 43 30.16" 0 0 824 0
Fort Lewis CO  01:15 PM 73 41 32% SW35 16 mph 75° @ 1036 AM 73 47 67 30 30.40" 0 0 868 0
Fort McKavett  01:15 PM 77 54 44% NE47 11 mph 44° @ 0112 PM 78 49 100 40 30.17" 0 0 869 0
Friona 2NE  01:15 PM 78 49 37% S1625 25 mph 170° @ 0115 PM 78 49 92 37 30.23" 0 0 839 0
Fritch 1WNW  01:15 PM 81 51 35% SW2124 27 mph 219° @ 0957 AM 81 57 77 35 30.16" 0 0 846 1
Gail 2ESE  01:15 PM 75 52 47% SE47 12 mph 182° @ 1100 AM 75 51 93 46 30.20" 0 0 798 0
Goodlett 3W  01:15 PM 75 55 52% SE713 13 mph 123° @ 0115 PM 75 53 96 52 30.18" 0 0 816 0
Goodnight  01:15 PM 77 53 43% S711 19 mph 199° @ 1248 PM 78 47 97 42 30.22" 0 0 802 0
Graham 5SSW  01:15 PM 75 53 47% E610 12 mph 125° @ 0100 PM 75 58 84 47 30.21" 0 0 848 0
Guadalupe Mtns Natl Park  01:15 PM 73 49 43% SE69 11 mph 75° @ 0107 PM 74 52 85 42 30.30" 0 0 835 0
Guthrie 10WSW  01:15 PM 77 51 41% NE68 16 mph 157° @ 1045 AM 77 53 94 41 30.18" 0 0 783 0
Hackberry 2SSE  01:15 PM 77 57 50% SE68 15 mph 145° @ 1048 AM 77 52 98 49 30.19" 0 0 865 0
Happy 1E  01:15 PM 77 52 41% SW1112 21 mph 210° @ 1037 AM 79 49 93 39 30.22" 0 0 849 0
Hart 3N  01:15 PM 76 52 43% S1116 19 mph 200° @ 1100 AM 76 47 97 43 30.22" 0 0 838 0
Haskell 1NW  01:15 PM 75 55 51% NE25 10 mph 177° @ 1120 AM 76 53 97 51 30.17" 0 0 818 0
Hefner 1SW  01:15 PM 76 54 46% E67 12 mph 146° @ 1105 AM 77 55 95 45 30.18" 0 0 841 0
Hereford 2NW  01:15 PM 77 50 40% S1116 24 mph 199° @ 1055 AM 77 51 90 40 30.21" 0 0 830 0
Hobbs NM 5NW  01:15 PM 74 50 43% SE811 16 mph 175° @ 1049 AM 75 54 84 41 30.25" 0 0 875 0
Jayton 1SSE  01:15 PM 76 56 51% E510 10 mph 120° @ 0120 AM 76 54 97 51 30.19" 0 0 837 0
Junction 1SSW  01:15 PM 78 54 44% NE1113 13 mph 23° @ 0115 PM 78 47 100 43 30.14" 0 0 785 0
Kent 9E  01:15 PM 75 51 42% NE78 14 mph 12° @ 1249 PM 76 55 88 42 30.23" 0 0 883 0
Knox City 3NW  01:15 PM 77 56 49% S48 13 mph 161° @ 1110 AM 77 52 98 49 30.18" 0 0 798 0
Lake Alan Henry 1NW  01:15 PM 77 52 42% SW45 11 mph 130° @ 1229 PM 77 53 96 42 30.19" 0 0 795 0
Lake McClellan 2NW  01:15 PM 76 53 45% SE1517 23 mph 201° @ 1048 AM 77 56 88 43 30.21" 0 0 791 0
Lamesa 2SE  01:15 PM 75 53 49% SE58 14 mph 157° @ 1005 AM 75 54 90 49 30.22" 0 0 865 0
Lesley 2S  01:15 PM 79 57 47% SE913 13 mph 140° @ 0115 PM 80 54 89 46 30.18" 0 0 832 0
Levelland 4S  01:15 PM 75 53 47% S1012 18 mph 189° @ 1055 AM 75 49 93 47 30.22" 0 0 846 0
Lomax 1SSE  01:15 PM 75 52 45% SE23 11 mph 107° @ 0104 PM 75 54 94 44 30.20" 0 0 857 0
Lubbock 3WNW TTU  01:15 PM 76 52 45% SE59 14 mph 187° @ 1020 AM 77 49 98 45 30.22" 0 0 832 0
McAdoo 3NNW  01:15 PM 76 54 46% S912 14 mph 205° @ 1023 AM 76 53 91 46 30.23" 0 0 826 0
McCamey 1SSW  01:15 PM 77 56 48% NE68 14 mph 139° @ 0958 AM 77 61 81 48 30.18" 0 0 751 0
McLean 1E  01:15 PM 75 53 47% S1318 21 mph 188° @ 1135 AM 75 53 94 46 30.19" 0 0 849 0
Memphis 1NE  01:15 PM 76 55 50% SE914 15 mph 133° @ 0100 PM 76 49 94 50 30.19" 0 0 776 0
Menard 2NW   01:15 PM 77 51 40% NE1315 15 mph 34° @ 0114 PM 78 49 100 40 30.16" 0 0 808 0
Mertzon 3NNE  01:15 PM 75 50 42% E69 10 mph 41° @ 1252 PM 75 48 100 40 30.19" 0 0 850 0
Morton 1ENE  01:15 PM 76 49 40% S812 16 mph 174° @ 1205 PM 76 50 92 39 30.22" 0 0 841 0
Muleshoe 2SSW  01:15 PM 78 48 36% S812 19 mph 192° @ 1100 AM 78 49 96 36 30.22" 0 0 900 0
New Home  01:15 PM 75 53 46% SE46 15 mph 195° @ 1055 AM 76 50 97 45 30.23" 0 0 834 0
Northfield 1S  01:15 PM 79 51 39% SE711 15 mph 151° @ 0110 PM 79 54 91 39 30.18" 0 0 790 0
O'Donnell 1N  01:15 PM 75 52 45% SE47 13 mph 180° @ 1030 AM 75 53 93 45 30.21" 0 0 768 0
Odell 4ENE  01:15 PM 74 56 52% S24 13 mph 165° @ 1149 AM 75 50 99 52 30.20" 0 0 845 0
Olton 6S  01:15 PM 75 52 46% S916 19 mph 200° @ 1000 AM 75 47 99 46 30.22" 0 0 851 0
Paducah 10SW  01:15 PM 78 55 46% SE612 15 mph 169° @ 1035 AM 78 53 96 46 30.19" 0 0 788 0
Palo Duro 4E (JA Ranch)  01:15 PM 78 57 48% SE1015 18 mph 147° @ 0113 PM 79 45 98 46 30.19" 0 0 801 0
Palo Duro Canyon SP Floor  01:15 PM 82 52 35% S57 18 mph 202° @ 1004 AM 83 53 85 33 30.17" 0 0 784 0
Palo Duro Canyon State Park Rim  01:15 PM 80 48 33% S1318 23 mph 201° @ 1042 AM 81 53 82 32 30.21" 0 0 847 0
Palo Duro Reservoir 1NW   12:50 PM 81 55 40% S1719 28 mph 191° @ 1157 AM 81 52 92 39 30.16" 0 0 774 0
Pampa 2E  01:15 PM 77 51 42% S1620 24 mph 187° @ 1115 AM 78 52 93 41 30.19" 0 0 812 0
Panhandle 1SSW  01:15 PM 79 53 41% S1620 23 mph 191° @ 1248 PM 79 47 100 41 30.21" 0 0 829 0
Plains 3N  01:15 PM 75 52 46% SE68 16 mph 182° @ 1030 AM 75 52 96 45 30.23" 0 0 861 0
Plainview 1S  01:15 PM 76 53 46% S712 15 mph 180° @ 1225 PM 76 49 96 46 30.21" 0 0 817 0
Post 1NE  01:15 PM 77 51 41% SE48 11 mph 185° @ 1105 AM 78 53 91 40 30.20" 0 0 814 0
Ralls 1SE  01:15 PM 76 49 40% S69 12 mph 209° @ 1025 AM 76 48 88 40 30.23" 0 0 796 0
Reese Center  01:15 PM 74 49 42% S67 20 mph 182° @ 1017 AM 75 51 93 42 30.22" 0 0 841 0
Roaring Springs 3N  01:15 PM 77 54 47% E711 14 mph 190° @ 0940 AM 78 53 100 47 30.20" 0 0 774 0
Romero 11SSW  01:15 PM 79 52 39% SW1317 24 mph 208° @ 1221 PM 79 56 86 38 30.17" 0 0 778 0
Rotan 5W  01:15 PM 74 54 51% NE46 10 mph 121° @ 1250 AM 74 55 97 49 30.20" 0 0 838 0
San Angelo 7NW  01:15 PM 77 50 40% NE610 12 mph 60° @ 0110 PM 77 53 97 40 30.17" 0 0 838 0
Seagraves 1SW  01:15 PM 75 52 46% SW48 14 mph 161° @ 1015 AM 75 49 97 46 30.22" 0 0 776 0
Segovia 7SSW  01:15 PM 76 51 41% NE68 15 mph 33° @ 1251 PM 77 54 95 39 30.16" 0 0 888 0
Seminole 2NNE  01:15 PM 77 52 44% SE59 15 mph 161° @ 1005 AM 77 52 94 44 30.21" 0 0 841 0
Seymour 3NW  01:15 PM 76 55 51% E58 10 mph 148° @ 1110 AM 76 55 98 49 30.18" 0 0 760 0
Sierra Blanca 1SSE  01:15 PM 79 47 33% SE810 16 mph 122° @ 1240 PM 79 57 77 33 30.24" 0 0 794 0
Silverton 7ESE  01:15 PM 78 51 41% SE812 17 mph 221° @ 1030 AM 78 51 96 38 30.21" 0 0 753 0
Slaton 2NE  01:15 PM 77 51 41% E57 12 mph 194° @ 1059 AM 77 51 94 41 30.22" 0 0 890 0
Smyer  01:15 PM 76 53 44% SE59 15 mph 217° @ 1139 AM 76 46 96 44 30.23" 0 0 875 0
Snyder 3E  01:15 PM 75 53 47% E48 12 mph 99° @ 1215 AM 75 56 91 47 30.19" 0 0 765 0
Snyder 3SSW  01:15 PM 74 55 51% S46 10 mph 160° @ 1056 AM 74 54 99 50 30.20" 0 0 809 0
South Plains 3ENE  01:15 PM 77 51 40% S710 16 mph 206° @ 1012 AM 78 47 98 38 30.22" 0 0 808 0
Spur 1W  01:15 PM 77 53 45% SE48 11 mph 222° @ 1125 AM 77 50 90 45 30.19" 0 0 808 0
St. Lawrence 5SW  01:15 PM 75 52 44% E37 12 mph 150° @ 1025 AM 75 54 94 44 30.20" 0 0 839 0
Stamford 5ESE  01:15 PM 76 55 48% NE47 9 mph 157° @ 1102 AM 76 55 97 47 30.18" 0 0 863 0
Sterling City 4WSW  01:15 PM 75 52 44% SE24 10 mph 93° @ 0108 PM 76 47 100 42 30.20" 0 0 699 0
Stinnett 1NNW  01:15 PM 81 51 36% SW2023 27 mph 218° @ 0100 PM 81 53 94 36 30.18" 0 0 833 0
Stratford 4WNW  01:15 PM 79 55 43% SW1621 29 mph 212° @ 1054 AM 79 53 89 43 30.17" 0 0 810 0
Sundown 8WSW  01:15 PM 75 50 43% S613 17 mph 158° @ 1220 PM 76 46 95 43 30.23" 0 0 754 0
Sweetwater 11SW   01:15 PM 75 51 43% NE58 12 mph 142° @ 0959 AM 75 56 92 43 30.21" 0 0 921 0
Tahoka 3NNE  01:15 PM 75 52 44% S59 13 mph 213° @ 1118 AM 76 50 94 43 30.22" 0 0 807 0
Tarzan 2WNW  01:15 PM 77 50 39% E57 14 mph 153° @ 1013 AM 77 55 97 39 30.21" 0 0 854 0
Tatum NM 2SW  01:15 PM 80 48 34% S713 18 mph 144° @ 1225 PM 80 46 84 34 30.24" 0 0 857 0
Throckmorton 1SW  01:15 PM 76 57 50% E68 12 mph 76° @ 1227 PM 76 53 100 48 30.18" 0 0 876 0
Truscott 2SE  01:15 PM 77 54 46% SE79 12 mph 160° @ 1237 PM 77 53 96 46 30.18" 0 0 838 0
Tulia 2ENE  01:15 PM 77 52 43% S1118 19 mph 186° @ 1100 AM 77 50 89 41 30.21" 0 0 731 0
Turkey 2WSW  01:15 PM 78 54 44% SE614 14 mph 145° @ 0115 PM 78 52 90 44 30.19" 0 0 738 0
Umbarger 3NNE  01:15 PM 79 50 37% SW1520 22 mph 204° @ 1046 AM 79 52 93 37 30.22" 0 0 839 0
Van Horn 3ENE  01:15 PM 80 51 37% SE79 11 mph 122° @ 0114 PM 80 56 83 36 30.21" 0 0 900 0
Vigo Park  01:15 PM 78 51 39% S1314 19 mph 187° @ 1110 AM 78 47 100 39 30.22" 0 0 757 0
Wall 2E  01:15 PM 75 54 48% NE68 11 mph 36° @ 0112 PM 76 53 99 48 30.18" 0 0 861 0
Weinert 2NNE  01:15 PM 75 57 52% NE57 11 mph 161° @ 1021 AM 76 55 93 49 30.18" 0 0 802 0
Welch  01:15 PM 76 52 43% SE57 17 mph 169° @ 1011 AM 76 50 100 42 30.22" 0 0 812 0
White River Lake 6NW  01:15 PM 75 54 47% SE513 13 mph 152° @ 0115 PM 76 53 93 44 30.20" 0 0 845 0
Wolfforth 6SSW  01:15 PM 74 53 49% S510 17 mph 206° @ 1220 PM 74 48 94 48 30.23" 0 0 845 0

West Texas Mesonet Home   Site Map/Menu  NWS Lubbock Soil Data  Daily Summary Page  24hr Precip  72hr Precip  Google Plot